sensor_id;sensor_type;location;lat;lon;timestamp;pressure;altitude;pressure_sealevel;temperature;humidity
48796;BME280;34607;48.520;-1.330;2024-01-10T08:44:44;101038.78;;;-1.09;87.04
48796;BME280;34607;48.520;-1.330;2024-01-10T08:47:11;101034.16;;;-1.15;87.25
48796;BME280;34607;48.520;-1.330;2024-01-10T08:49:39;101039.22;;;-1.15;87.24
48796;BME280;34607;48.520;-1.330;2024-01-10T08:52:06;101038.13;;;-1.18;87.55
48796;BME280;34607;48.520;-1.330;2024-01-10T08:54:33;101035.78;;;-1.15;87.52
48796;BME280;34607;48.520;-1.330;2024-01-10T08:57:00;101032.94;;;-1.08;88.20
48796;BME280;34607;48.520;-1.330;2024-01-10T08:59:29;101037.50;;;-0.92;87.76
48796;BME280;34607;48.520;-1.330;2024-01-10T09:01:58;101040.03;;;-0.80;87.55
48796;BME280;34607;48.520;-1.330;2024-01-10T09:04:25;101036.94;;;-0.76;87.17
48796;BME280;34607;48.520;-1.330;2024-01-10T09:06:52;101035.06;;;-0.90;87.05
48796;BME280;34607;48.520;-1.330;2024-01-10T09:09:19;101043.63;;;-1.12;87.05
48796;BME280;34607;48.520;-1.330;2024-01-10T09:11:47;101050.41;;;-1.01;87.87
48796;BME280;34607;48.520;-1.330;2024-01-10T09:14:14;101049.84;;;-0.97;87.40
48796;BME280;34607;48.520;-1.330;2024-01-10T09:16:41;101058.69;;;-1.03;87.61
48796;BME280;34607;48.520;-1.330;2024-01-10T09:19:10;101060.19;;;-1.17;87.99
48796;BME280;34607;48.520;-1.330;2024-01-10T09:21:37;101063.22;;;-1.11;87.97
48796;BME280;34607;48.520;-1.330;2024-01-10T09:24:04;101066.75;;;-1.09;87.99
48796;BME280;34607;48.520;-1.330;2024-01-10T09:26:34;101066.16;;;-1.17;87.70
48796;BME280;34607;48.520;-1.330;2024-01-10T09:29:01;101064.19;;;-1.09;87.94
48796;BME280;34607;48.520;-1.330;2024-01-10T09:31:28;101044.94;;;-1.17;87.92
48796;BME280;34607;48.520;-1.330;2024-01-10T09:33:55;101070.28;;;-1.07;87.43
48796;BME280;34607;48.520;-1.330;2024-01-10T09:36:24;101068.56;;;-1.30;87.62
48796;BME280;34607;48.520;-1.330;2024-01-10T09:38:51;101062.63;;;-1.19;87.96
48796;BME280;34607;48.520;-1.330;2024-01-10T09:41:19;101077.00;;;-1.19;87.81
48796;BME280;34607;48.520;-1.330;2024-01-10T09:43:46;101068.81;;;-1.15;88.06
48796;BME280;34607;48.520;-1.330;2024-01-10T09:46:14;101084.97;;;-1.15;87.37
48796;BME280;34607;48.520;-1.330;2024-01-10T09:48:43;101078.22;;;-1.14;87.68
48796;BME280;34607;48.520;-1.330;2024-01-10T09:51:11;101091.34;;;-1.20;87.95
48796;BME280;34607;48.520;-1.330;2024-01-10T09:53:44;101087.91;;;-1.20;87.50
48796;BME280;34607;48.520;-1.330;2024-01-10T09:56:15;101094.69;;;-1.09;87.82
48796;BME280;34607;48.520;-1.330;2024-01-10T09:58:43;101095.59;;;-0.97;87.55
48796;BME280;34607;48.520;-1.330;2024-01-10T10:01:10;101095.34;;;-1.11;87.25
48796;BME280;34607;48.520;-1.330;2024-01-10T10:03:38;101095.00;;;-1.16;87.62
48796;BME280;34607;48.520;-1.330;2024-01-10T10:06:08;101097.25;;;-1.09;87.91
48796;BME280;34607;48.520;-1.330;2024-01-10T10:08:35;101101.25;;;-1.01;87.52
48796;BME280;34607;48.520;-1.330;2024-01-10T10:11:04;101099.81;;;-0.97;87.43
48796;BME280;34607;48.520;-1.330;2024-01-10T10:13:32;101101.69;;;-0.95;87.48
48796;BME280;34607;48.520;-1.330;2024-01-10T10:16:02;101098.63;;;-0.90;87.13
48796;BME280;34607;48.520;-1.330;2024-01-10T10:18:29;101099.84;;;-0.85;86.89
48796;BME280;34607;48.520;-1.330;2024-01-10T10:21:07;101065.88;;;-1.09;86.76
48796;BME280;34607;48.520;-1.330;2024-01-10T10:23:36;101101.47;;;-0.86;87.07
48796;BME280;34607;48.520;-1.330;2024-01-10T10:26:15;101098.66;;;-0.79;86.64
48796;BME280;34607;48.520;-1.330;2024-01-10T10:28:46;101074.66;;;-0.82;87.01
48796;BME280;34607;48.520;-1.330;2024-01-10T10:31:13;101096.31;;;-0.64;86.92
48796;BME280;34607;48.520;-1.330;2024-01-10T10:33:42;101092.34;;;-0.60;86.95
48796;BME280;34607;48.520;-1.330;2024-01-10T10:36:10;101100.88;;;-0.48;86.48
48796;BME280;34607;48.520;-1.330;2024-01-10T10:38:37;101090.94;;;-0.57;86.21
48796;BME280;34607;48.520;-1.330;2024-01-10T10:41:05;101102.88;;;-0.44;86.18
48796;BME280;34607;48.520;-1.330;2024-01-10T10:43:38;101099.88;;;-0.38;86.30
48796;BME280;34607;48.520;-1.330;2024-01-10T10:46:07;101095.00;;;-0.35;85.98
48796;BME280;34607;48.520;-1.330;2024-01-10T10:48:36;101093.25;;;-0.36;85.69
48796;BME280;34607;48.520;-1.330;2024-01-10T10:51:04;101093.91;;;-0.39;85.50
48796;BME280;34607;48.520;-1.330;2024-01-10T10:53:35;101093.91;;;-0.50;85.46
48796;BME280;34607;48.520;-1.330;2024-01-10T10:56:03;101089.72;;;-0.62;85.62
48796;BME280;34607;48.520;-1.330;2024-01-10T10:58:37;101082.19;;;-0.72;85.87
48796;BME280;34607;48.520;-1.330;2024-01-10T11:01:07;101088.03;;;-0.73;87.13
48796;BME280;34607;48.520;-1.330;2024-01-10T11:03:36;101096.44;;;-0.62;86.97
48796;BME280;34607;48.520;-1.330;2024-01-10T11:06:04;101091.94;;;-0.54;86.74
48796;BME280;34607;48.520;-1.330;2024-01-10T11:08:36;101102.31;;;-0.51;86.71
48796;BME280;34607;48.520;-1.330;2024-01-10T11:11:06;101093.47;;;-0.57;85.97
48796;BME280;34607;48.520;-1.330;2024-01-10T11:14:01;101091.44;;;-0.72;86.14
48796;BME280;34607;48.520;-1.330;2024-01-10T11:19:58;101088.59;;;-0.53;86.77
48796;BME280;34607;48.520;-1.330;2024-01-10T11:22:58;101042.38;;;-0.71;86.67
48796;BME280;34607;48.520;-1.330;2024-01-10T11:25:30;101097.91;;;-0.30;87.08
48796;BME280;34607;48.520;-1.330;2024-01-10T11:28:02;101088.38;;;-0.33;86.07
48796;BME280;34607;48.520;-1.330;2024-01-10T11:30:33;101075.63;;;-0.33;86.40
48796;BME280;34607;48.520;-1.330;2024-01-10T11:33:01;101079.50;;;-0.26;86.39
48796;BME280;34607;48.520;-1.330;2024-01-10T11:35:29;101084.94;;;-0.22;86.24
48796;BME280;34607;48.520;-1.330;2024-01-10T11:37:59;101054.97;;;-0.26;86.04
48796;BME280;34607;48.520;-1.330;2024-01-10T11:40:45;101066.44;;;-0.07;85.94
48796;BME280;34607;48.520;-1.330;2024-01-10T11:43:13;101071.50;;;0.05;85.55
48796;BME280;34607;48.520;-1.330;2024-01-10T11:45:51;101068.41;;;0.09;85.27
48796;BME280;34607;48.520;-1.330;2024-01-10T11:48:25;101061.75;;;0.11;85.54
48796;BME280;34607;48.520;-1.330;2024-01-10T11:50:53;101067.94;;;0.14;84.97
48796;BME280;34607;48.520;-1.330;2024-01-10T11:53:38;101065.91;;;0.22;85.12
48796;BME280;34607;48.520;-1.330;2024-01-10T11:56:10;101059.28;;;0.24;85.03
48796;BME280;34607;48.520;-1.330;2024-01-10T11:59:00;101051.44;;;0.21;84.73
48796;BME280;34607;48.520;-1.330;2024-01-10T12:01:29;101058.47;;;0.37;85.28
48796;BME280;34607;48.520;-1.330;2024-01-10T12:03:57;101052.59;;;0.38;85.14
48796;BME280;34607;48.520;-1.330;2024-01-10T12:06:25;101049.50;;;0.30;84.83
48796;BME280;34607;48.520;-1.330;2024-01-10T12:08:52;101060.16;;;0.25;85.30
48796;BME280;34607;48.520;-1.330;2024-01-10T12:11:20;101053.13;;;0.34;85.24
48796;BME280;34607;48.520;-1.330;2024-01-10T12:13:47;101049.50;;;0.30;84.98
48796;BME280;34607;48.520;-1.330;2024-01-10T12:16:15;101045.09;;;0.28;84.60
48796;BME280;34607;48.520;-1.330;2024-01-10T12:18:44;101044.84;;;0.36;84.77
48796;BME280;34607;48.520;-1.330;2024-01-10T12:21:11;101038.78;;;0.48;85.14
48796;BME280;34607;48.520;-1.330;2024-01-10T12:23:39;101041.00;;;0.55;84.69
48796;BME280;34607;48.520;-1.330;2024-01-10T12:26:08;101041.28;;;0.60;84.56
48796;BME280;34607;48.520;-1.330;2024-01-10T12:28:37;101035.63;;;0.64;84.21
48796;BME280;34607;48.520;-1.330;2024-01-10T12:31:05;101028.25;;;0.55;84.46
48796;BME280;34607;48.520;-1.330;2024-01-10T12:33:33;101033.19;;;0.65;84.38
48796;BME280;34607;48.520;-1.330;2024-01-10T12:36:07;101030.72;;;0.67;83.63
48796;BME280;34607;48.520;-1.330;2024-01-10T12:38:35;101028.97;;;0.66;84.08
48796;BME280;34607;48.520;-1.330;2024-01-10T12:41:03;101025.84;;;0.70;83.89
48796;BME280;34607;48.520;-1.330;2024-01-10T12:43:31;101029.63;;;0.63;83.41
48796;BME280;34607;48.520;-1.330;2024-01-10T12:46:05;101028.34;;;0.56;83.42
48796;BME280;34607;48.520;-1.330;2024-01-10T12:48:33;101023.31;;;0.45;83.79
48796;BME280;34607;48.520;-1.330;2024-01-10T12:51:02;101017.09;;;0.41;83.90
48796;BME280;34607;48.520;-1.330;2024-01-10T12:53:34;100991.78;;;0.31;84.10
48796;BME280;34607;48.520;-1.330;2024-01-10T12:56:02;101014.50;;;0.40;84.06
48796;BME280;34607;48.520;-1.330;2024-01-10T12:58:30;101020.59;;;0.30;84.36
48796;BME280;34607;48.520;-1.330;2024-01-10T13:00:57;101019.25;;;0.35;84.88
48796;BME280;34607;48.520;-1.330;2024-01-10T13:03:25;101017.03;;;0.40;84.99
48796;BME280;34607;48.520;-1.330;2024-01-10T13:05:52;101011.03;;;0.39;84.47
48796;BME280;34607;48.520;-1.330;2024-01-10T13:08:19;101014.66;;;0.43;84.60
48796;BME280;34607;48.520;-1.330;2024-01-10T13:10:48;101000.06;;;0.40;84.45
48796;BME280;34607;48.520;-1.330;2024-01-10T13:13:15;101015.31;;;0.27;83.93
48796;BME280;34607;48.520;-1.330;2024-01-10T13:15:43;101021.81;;;0.35;84.72
48796;BME280;34607;48.520;-1.330;2024-01-10T13:18:11;101014.78;;;0.44;84.49
48796;BME280;34607;48.520;-1.330;2024-01-10T13:20:38;101015.25;;;0.64;85.15
48796;BME280;34607;48.520;-1.330;2024-01-10T13:23:06;101006.03;;;0.66;84.33
48796;BME280;34607;48.520;-1.330;2024-01-10T13:25:34;101003.97;;;0.60;84.29
48796;BME280;34607;48.520;-1.330;2024-01-10T13:28:03;101001.50;;;0.62;84.15
48796;BME280;34607;48.520;-1.330;2024-01-10T13:30:30;100992.03;;;0.72;84.53
48796;BME280;34607;48.520;-1.330;2024-01-10T13:32:57;100998.97;;;0.75;83.69
48796;BME280;34607;48.520;-1.330;2024-01-10T13:35:26;101000.78;;;0.76;84.25
48796;BME280;34607;48.520;-1.330;2024-01-10T13:37:53;100999.72;;;0.86;83.81
48796;BME280;34607;48.520;-1.330;2024-01-10T13:40:20;100993.28;;;0.66;83.11
48796;BME280;34607;48.520;-1.330;2024-01-10T13:42:50;100995.63;;;0.63;83.65
48796;BME280;34607;48.520;-1.330;2024-01-10T13:45:18;101002.44;;;0.76;84.27
48796;BME280;34607;48.520;-1.330;2024-01-10T13:47:46;100966.84;;;0.64;83.80
48796;BME280;34607;48.520;-1.330;2024-01-10T13:50:13;100992.06;;;0.86;83.98
48796;BME280;34607;48.520;-1.330;2024-01-10T13:52:40;100988.41;;;0.82;83.73
48796;BME280;34607;48.520;-1.330;2024-01-10T13:55:08;100967.22;;;0.70;83.78
48796;BME280;34607;48.520;-1.330;2024-01-10T13:57:35;100977.13;;;0.79;83.47
48796;BME280;34607;48.520;-1.330;2024-01-10T14:00:03;100974.28;;;0.87;83.60
48796;BME280;34607;48.520;-1.330;2024-01-10T14:02:39;100980.78;;;1.09;83.52
48796;BME280;34607;48.520;-1.330;2024-01-10T14:05:06;100987.47;;;1.07;83.11
48796;BME280;34607;48.520;-1.330;2024-01-10T14:07:33;100983.13;;;1.06;83.37
48796;BME280;34607;48.520;-1.330;2024-01-10T14:10:01;100976.94;;;0.89;82.34
48796;BME280;34607;48.520;-1.330;2024-01-10T14:12:28;100979.41;;;0.87;82.67
48796;BME280;34607;48.520;-1.330;2024-01-10T14:14:55;100984.59;;;0.89;83.11
48796;BME280;34607;48.520;-1.330;2024-01-10T14:17:23;100982.16;;;0.90;82.74
48796;BME280;34607;48.520;-1.330;2024-01-10T14:19:52;100983.53;;;0.99;82.84
48796;BME280;34607;48.520;-1.330;2024-01-10T14:22:19;100984.81;;;1.05;82.77
48796;BME280;34607;48.520;-1.330;2024-01-10T14:24:46;100981.22;;;1.15;82.46
48796;BME280;34607;48.520;-1.330;2024-01-10T14:27:13;100978.06;;;1.19;82.40
48796;BME280;34607;48.520;-1.330;2024-01-10T14:29:40;100983.72;;;1.28;82.03
48796;BME280;34607;48.520;-1.330;2024-01-10T14:32:07;100977.97;;;1.31;81.84
48796;BME280;34607;48.520;-1.330;2024-01-10T14:34:34;100983.72;;;1.28;81.62
48796;BME280;34607;48.520;-1.330;2024-01-10T14:37:03;100979.03;;;1.21;81.85
48796;BME280;34607;48.520;-1.330;2024-01-10T14:39:30;100979.72;;;1.19;81.77
48796;BME280;34607;48.520;-1.330;2024-01-10T14:41:57;100978.25;;;1.09;81.42
48796;BME280;34607;48.520;-1.330;2024-01-10T14:44:24;100978.44;;;1.12;82.06
48796;BME280;34607;48.520;-1.330;2024-01-10T14:46:52;100956.97;;;1.08;82.00
48796;BME280;34607;48.520;-1.330;2024-01-10T14:49:19;100980.59;;;1.19;81.64
48796;BME280;34607;48.520;-1.330;2024-01-10T14:51:46;100977.66;;;1.00;81.61
48796;BME280;34607;48.520;-1.330;2024-01-10T14:54:14;100977.16;;;0.92;82.33
48796;BME280;34607;48.520;-1.330;2024-01-10T14:56:42;100972.84;;;0.91;82.59
48796;BME280;34607;48.520;-1.330;2024-01-10T14:59:10;100978.59;;;0.75;83.02
48796;BME280;34607;48.520;-1.330;2024-01-10T15:01:37;100983.69;;;0.75;83.17
48796;BME280;34607;48.520;-1.330;2024-01-10T15:04:04;100987.03;;;0.74;83.05
48796;BME280;34607;48.520;-1.330;2024-01-10T15:06:31;100976.03;;;0.75;83.64
48796;BME280;34607;48.520;-1.330;2024-01-10T15:08:58;100980.47;;;0.78;83.17
48796;BME280;34607;48.520;-1.330;2024-01-10T15:11:27;100970.94;;;0.75;83.60
48796;BME280;34607;48.520;-1.330;2024-01-10T15:13:54;100978.38;;;0.72;83.37
48796;BME280;34607;48.520;-1.330;2024-01-10T15:16:22;100984.84;;;0.67;83.17
48796;BME280;34607;48.520;-1.330;2024-01-10T15:18:49;100981.63;;;0.69;83.34
48796;BME280;34607;48.520;-1.330;2024-01-10T15:21:17;100975.44;;;0.66;83.46
48796;BME280;34607;48.520;-1.330;2024-01-10T15:23:45;100968.66;;;0.53;83.98
48796;BME280;34607;48.520;-1.330;2024-01-10T15:26:15;100980.94;;;0.59;83.93
48796;BME280;34607;48.520;-1.330;2024-01-10T15:28:44;100984.06;;;0.68;83.78
48796;BME280;34607;48.520;-1.330;2024-01-10T15:31:14;100979.75;;;0.67;83.60
48796;BME280;34607;48.520;-1.330;2024-01-10T15:33:41;100986.84;;;0.71;83.51
48796;BME280;34607;48.520;-1.330;2024-01-10T15:36:08;100993.41;;;0.67;83.49
48796;BME280;34607;48.520;-1.330;2024-01-10T15:38:35;100987.00;;;0.61;83.79
48796;BME280;34607;48.520;-1.330;2024-01-10T15:41:06;100984.66;;;0.64;84.14
48796;BME280;34607;48.520;-1.330;2024-01-10T15:43:33;100990.53;;;0.63;83.81
48796;BME280;34607;48.520;-1.330;2024-01-10T15:46:01;100986.19;;;0.48;83.72
48796;BME280;34607;48.520;-1.330;2024-01-10T15:48:28;100994.50;;;0.46;84.30
48796;BME280;34607;48.520;-1.330;2024-01-10T15:50:56;100994.28;;;0.43;84.62
48796;BME280;34607;48.520;-1.330;2024-01-10T15:53:23;100996.56;;;0.51;84.45
48796;BME280;34607;48.520;-1.330;2024-01-10T15:55:50;100993.84;;;0.62;84.83
48796;BME280;34607;48.520;-1.330;2024-01-10T15:58:17;100986.91;;;0.59;84.25
48796;BME280;34607;48.520;-1.330;2024-01-10T16:00:44;100998.50;;;0.67;84.46
48796;BME280;34607;48.520;-1.330;2024-01-10T16:03:13;100996.88;;;0.56;84.24
48796;BME280;34607;48.520;-1.330;2024-01-10T16:05:40;101001.66;;;0.51;84.74
48796;BME280;34607;48.520;-1.330;2024-01-10T16:08:07;100995.78;;;0.52;84.44
48796;BME280;34607;48.520;-1.330;2024-01-10T16:10:34;101004.03;;;0.62;84.66
48796;BME280;34607;48.520;-1.330;2024-01-10T16:13:01;101010.34;;;0.67;84.35
48796;BME280;34607;48.520;-1.330;2024-01-10T16:15:28;101006.09;;;0.54;84.32
48796;BME280;34607;48.520;-1.330;2024-01-10T16:17:55;101003.97;;;0.60;84.79
48796;BME280;34607;48.520;-1.330;2024-01-10T16:20:24;101004.84;;;0.61;84.60
48796;BME280;34607;48.520;-1.330;2024-01-10T16:22:51;101003.88;;;0.59;84.28
48796;BME280;34607;48.520;-1.330;2024-01-10T16:25:18;101011.50;;;0.59;84.23
48796;BME280;34607;48.520;-1.330;2024-01-10T16:27:45;101007.94;;;0.56;84.27
48796;BME280;34607;48.520;-1.330;2024-01-10T16:30:12;101011.66;;;0.48;84.36
48796;BME280;34607;48.520;-1.330;2024-01-10T16:32:39;101006.56;;;0.48;84.61
48796;BME280;34607;48.520;-1.330;2024-01-10T16:35:06;101011.84;;;0.51;84.34
48796;BME280;34607;48.520;-1.330;2024-01-10T16:37:35;101014.22;;;0.48;84.74
48796;BME280;34607;48.520;-1.330;2024-01-10T16:40:03;101011.47;;;0.45;84.20
48796;BME280;34607;48.520;-1.330;2024-01-10T16:42:30;101016.25;;;0.41;84.45
48796;BME280;34607;48.520;-1.330;2024-01-10T16:45:00;101019.88;;;0.44;84.75
48796;BME280;34607;48.520;-1.330;2024-01-10T16:47:27;101022.63;;;0.47;84.70
48796;BME280;34607;48.520;-1.330;2024-01-10T16:49:55;101020.31;;;0.50;84.47
48796;BME280;34607;48.520;-1.330;2024-01-10T16:52:22;101031.69;;;0.55;84.32
48796;BME280;34607;48.520;-1.330;2024-01-10T16:54:50;101026.09;;;0.61;84.55
48796;BME280;34607;48.520;-1.330;2024-01-10T16:57:17;101032.56;;;0.56;84.00
48796;BME280;34607;48.520;-1.330;2024-01-10T16:59:44;101039.06;;;0.39;84.13
48796;BME280;34607;48.520;-1.330;2024-01-10T17:02:11;101031.53;;;0.41;84.49
48796;BME280;34607;48.520;-1.330;2024-01-10T17:04:40;101038.63;;;0.45;84.55
48796;BME280;34607;48.520;-1.330;2024-01-10T17:07:07;101040.78;;;0.52;84.71
48796;BME280;34607;48.520;-1.330;2024-01-10T17:09:38;101039.44;;;0.57;84.89
48796;BME280;34607;48.520;-1.330;2024-01-10T17:12:07;101045.41;;;0.58;84.70
48796;BME280;34607;48.520;-1.330;2024-01-10T17:14:35;101042.34;;;0.50;84.64
48796;BME280;34607;48.520;-1.330;2024-01-10T17:17:02;101047.44;;;0.50;84.56
48796;BME280;34607;48.520;-1.330;2024-01-10T17:19:29;101044.63;;;0.59;84.72
48796;BME280;34607;48.520;-1.330;2024-01-10T17:21:56;101048.06;;;0.59;85.00
48796;BME280;34607;48.520;-1.330;2024-01-10T17:24:23;101050.72;;;0.61;84.71
48796;BME280;34607;48.520;-1.330;2024-01-10T17:26:50;101040.53;;;0.61;84.54
48796;BME280;34607;48.520;-1.330;2024-01-10T17:29:19;101056.03;;;0.64;84.80
48796;BME280;34607;48.520;-1.330;2024-01-10T17:31:46;101056.13;;;0.65;84.75
48796;BME280;34607;48.520;-1.330;2024-01-10T17:34:13;101044.47;;;0.69;84.72
48796;BME280;34607;48.520;-1.330;2024-01-10T17:36:40;101038.19;;;0.64;84.44
48796;BME280;34607;48.520;-1.330;2024-01-10T17:39:07;101047.69;;;0.66;84.56
48796;BME280;34607;48.520;-1.330;2024-01-10T17:41:34;101043.19;;;0.62;85.19
48796;BME280;34607;48.520;-1.330;2024-01-10T17:44:01;101048.72;;;0.56;84.59
48796;BME280;34607;48.520;-1.330;2024-01-10T17:46:30;101037.00;;;0.59;85.46
48796;BME280;34607;48.520;-1.330;2024-01-10T17:48:57;101043.72;;;0.58;85.04
48796;BME280;34607;48.520;-1.330;2024-01-10T17:51:24;101046.50;;;0.61;85.42
48796;BME280;34607;48.520;-1.330;2024-01-10T17:53:53;101050.94;;;0.64;85.05
48796;BME280;34607;48.520;-1.330;2024-01-10T17:56:21;101044.63;;;0.59;84.82
48796;BME280;34607;48.520;-1.330;2024-01-10T17:58:48;101054.78;;;0.45;85.20
48796;BME280;34607;48.520;-1.330;2024-01-10T18:01:15;101059.06;;;0.21;85.04
48796;BME280;34607;48.520;-1.330;2024-01-10T18:03:44;101056.09;;;0.15;85.59
48796;BME280;34607;48.520;-1.330;2024-01-10T18:06:11;101059.31;;;0.12;85.18
48796;BME280;34607;48.520;-1.330;2024-01-10T18:08:38;101050.88;;;0.13;85.45
48796;BME280;34607;48.520;-1.330;2024-01-10T18:11:05;101059.06;;;0.21;85.08
48796;BME280;34607;48.520;-1.330;2024-01-10T18:13:32;101060.84;;;0.10;85.33
48796;BME280;34607;48.520;-1.330;2024-01-10T18:16:00;101063.63;;;0.13;85.17
48796;BME280;34607;48.520;-1.330;2024-01-10T18:18:28;101069.28;;;0.09;84.54
48796;BME280;34607;48.520;-1.330;2024-01-10T18:20:59;101044.38;;;0.05;84.87
48796;BME280;34607;48.520;-1.330;2024-01-10T18:23:27;101059.50;;;0.15;84.49
48796;BME280;34607;48.520;-1.330;2024-01-10T18:25:54;101066.28;;;0.15;84.48
48796;BME280;34607;48.520;-1.330;2024-01-10T18:28:22;101055.88;;;0.12;84.43
48796;BME280;34607;48.520;-1.330;2024-01-10T18:30:49;101063.25;;;0.21;84.36
48796;BME280;34607;48.520;-1.330;2024-01-10T18:33:16;101049.69;;;0.08;84.51
48796;BME280;34607;48.520;-1.330;2024-01-10T18:35:43;101068.34;;;0.21;84.21
48796;BME280;34607;48.520;-1.330;2024-01-10T18:38:12;101066.81;;;0.23;84.38
48796;BME280;34607;48.520;-1.330;2024-01-10T18:40:41;101063.84;;;0.16;84.23
48796;BME280;34607;48.520;-1.330;2024-01-10T18:43:08;101063.72;;;0.15;84.21
48796;BME280;34607;48.520;-1.330;2024-01-10T18:45:36;101073.91;;;0.15;84.56
48796;BME280;34607;48.520;-1.330;2024-01-10T18:48:04;101076.59;;;0.05;84.36
48796;BME280;34607;48.520;-1.330;2024-01-10T18:50:31;101077.69;;;0.08;84.69
48796;BME280;34607;48.520;-1.330;2024-01-10T18:52:59;101080.13;;;0.07;84.45
48796;BME280;34607;48.520;-1.330;2024-01-10T18:55:29;101080.38;;;-0.02;84.95
48796;BME280;34607;48.520;-1.330;2024-01-10T18:57:56;101078.50;;;-0.05;85.13
48796;BME280;34607;48.520;-1.330;2024-01-10T19:00:23;101079.28;;;-0.06;85.19
48796;BME280;34607;48.520;-1.330;2024-01-10T19:02:52;101077.06;;;-0.01;84.75
48796;BME280;34607;48.520;-1.330;2024-01-10T19:05:20;101077.28;;;0.02;85.04
48796;BME280;34607;48.520;-1.330;2024-01-10T19:07:48;101086.13;;;0.07;84.94
48796;BME280;34607;48.520;-1.330;2024-01-10T19:10:15;101084.69;;;0.11;84.80
48796;BME280;34607;48.520;-1.330;2024-01-10T19:12:44;101091.09;;;0.06;84.59
48796;BME280;34607;48.520;-1.330;2024-01-10T19:15:11;101095.88;;;-0.11;84.34
48796;BME280;34607;48.520;-1.330;2024-01-10T19:17:40;101099.44;;;-0.21;84.73
48796;BME280;34607;48.520;-1.330;2024-01-10T19:20:08;101099.53;;;-0.19;85.05
48796;BME280;34607;48.520;-1.330;2024-01-10T19:22:35;101099.63;;;-0.17;85.46
48796;BME280;34607;48.520;-1.330;2024-01-10T19:25:02;101104.97;;;-0.14;85.40
48796;BME280;34607;48.520;-1.330;2024-01-10T19:27:30;101098.00;;;-0.17;85.13
48796;BME280;34607;48.520;-1.330;2024-01-10T19:29:58;101101.44;;;-0.16;84.96
48796;BME280;34607;48.520;-1.330;2024-01-10T19:32:25;101101.75;;;-0.12;85.42
48796;BME280;34607;48.520;-1.330;2024-01-10T19:34:52;101100.31;;;-0.20;85.30
48796;BME280;34607;48.520;-1.330;2024-01-10T19:37:19;101101.19;;;-0.31;85.54
48796;BME280;34607;48.520;-1.330;2024-01-10T19:39:48;101104.97;;;-0.26;85.92
48796;BME280;34607;48.520;-1.330;2024-01-10T19:42:15;101110.84;;;-0.27;85.92
48796;BME280;34607;48.520;-1.330;2024-01-10T19:44:42;101096.09;;;-0.43;85.58
48796;BME280;34607;48.520;-1.330;2024-01-10T19:47:11;101112.94;;;-0.45;86.26
48796;BME280;34607;48.520;-1.330;2024-01-10T19:49:39;101108.94;;;-0.42;86.54
48796;BME280;34607;48.520;-1.330;2024-01-10T19:52:06;101113.16;;;-0.42;86.36
48796;BME280;34607;48.520;-1.330;2024-01-10T19:54:36;101112.06;;;-0.34;86.19
48796;BME280;34607;48.520;-1.330;2024-01-10T19:57:03;101112.81;;;-0.35;86.00
48796;BME280;34607;48.520;-1.330;2024-01-10T19:59:30;101120.44;;;-0.47;86.14
48796;BME280;34607;48.520;-1.330;2024-01-10T20:01:57;101126.63;;;-0.43;86.55
48796;BME280;34607;48.520;-1.330;2024-01-10T20:04:26;101129.75;;;-0.47;86.25
48796;BME280;34607;48.520;-1.330;2024-01-10T20:06:53;101131.72;;;-0.55;86.40
48796;BME280;34607;48.520;-1.330;2024-01-10T20:09:20;101129.72;;;-0.59;86.86
48796;BME280;34607;48.520;-1.330;2024-01-10T20:11:47;101137.72;;;-0.54;86.92
48796;BME280;34607;48.520;-1.330;2024-01-10T20:14:14;101140.47;;;-0.51;86.66
48796;BME280;34607;48.520;-1.330;2024-01-10T20:16:41;101141.00;;;-0.55;86.67
48796;BME280;34607;48.520;-1.330;2024-01-10T20:19:08;101145.00;;;-0.47;87.12
48796;BME280;34607;48.520;-1.330;2024-01-10T20:21:37;101138.25;;;-0.47;86.76
48796;BME280;34607;48.520;-1.330;2024-01-10T20:24:04;101143.91;;;-0.51;87.04
48796;BME280;34607;48.520;-1.330;2024-01-10T20:26:31;101135.06;;;-0.56;86.69
48796;BME280;34607;48.520;-1.330;2024-01-10T20:28:59;101137.13;;;-0.62;86.86
48796;BME280;34607;48.520;-1.330;2024-01-10T20:31:26;101140.88;;;-0.69;87.20
48796;BME280;34607;48.520;-1.330;2024-01-10T20:33:53;101142.88;;;-0.65;87.11
48796;BME280;34607;48.520;-1.330;2024-01-10T20:36:20;101145.75;;;-0.72;87.59
48796;BME280;34607;48.520;-1.330;2024-01-10T20:38:49;101147.75;;;-0.68;87.77
48796;BME280;34607;48.520;-1.330;2024-01-10T20:41:16;101146.66;;;-0.60;87.45
48796;BME280;34607;48.520;-1.330;2024-01-10T20:43:43;101142.22;;;-0.62;87.27
48796;BME280;34607;48.520;-1.330;2024-01-10T20:46:11;101148.75;;;-0.66;87.66
48796;BME280;34607;48.520;-1.330;2024-01-10T20:48:40;101152.72;;;-0.69;87.30
48796;BME280;34607;48.520;-1.330;2024-01-10T20:51:07;101155.59;;;-0.65;87.57
48796;BME280;34607;48.520;-1.330;2024-01-10T20:53:34;101154.69;;;-0.65;86.94
48796;BME280;34607;48.520;-1.330;2024-01-10T20:56:03;101163.56;;;-0.72;87.25
48796;BME280;34607;48.520;-1.330;2024-01-10T20:58:30;101157.66;;;-0.83;87.71
48796;BME280;34607;48.520;-1.330;2024-01-10T21:00:57;101171.19;;;-0.72;87.82
48796;BME280;34607;48.520;-1.330;2024-01-10T21:03:24;101161.22;;;-0.69;87.86
48796;BME280;34607;48.520;-1.330;2024-01-10T21:05:55;101168.44;;;-0.63;87.87
48796;BME280;34607;48.520;-1.330;2024-01-10T21:08:22;101176.19;;;-0.62;87.41
48796;BME280;34607;48.520;-1.330;2024-01-10T21:10:49;101145.28;;;-0.78;87.52
48796;BME280;34607;48.520;-1.330;2024-01-10T21:13:17;101178.06;;;-0.59;87.57
48796;BME280;34607;48.520;-1.330;2024-01-10T21:15:44;101179.50;;;-0.63;87.03
48796;BME280;34607;48.520;-1.330;2024-01-10T21:18:11;101189.78;;;-0.61;87.47
48796;BME280;34607;48.520;-1.330;2024-01-10T21:20:38;101181.16;;;-0.63;87.56
48796;BME280;34607;48.520;-1.330;2024-01-10T21:23:06;101176.94;;;-0.63;87.40
48796;BME280;34607;48.520;-1.330;2024-01-10T21:25:33;101177.94;;;-0.61;87.78
48796;BME280;34607;48.520;-1.330;2024-01-10T21:28:02;101183.47;;;-0.66;87.54
48796;BME280;34607;48.520;-1.330;2024-01-10T21:30:33;101184.22;;;-0.67;87.52
48796;BME280;34607;48.520;-1.330;2024-01-10T21:33:00;101185.31;;;-0.76;87.75
48796;BME280;34607;48.520;-1.330;2024-01-10T21:35:28;101183.91;;;-0.72;87.89
48796;BME280;34607;48.520;-1.330;2024-01-10T21:37:56;101160.44;;;-0.80;87.43